sensor_id;sensor_type;location;lat;lon;timestamp;P1;durP1;ratioP1;P2;durP2;ratioP2
16673;SDS011;8450;52.654;10.326;2022-12-18T08:30:40;30.03;;;20.77;;
16673;SDS011;8450;52.654;10.326;2022-12-18T08:33:07;31.87;;;20.87;;
16673;SDS011;8450;52.654;10.326;2022-12-18T08:35:36;29.73;;;19.53;;
16673;SDS011;8450;52.654;10.326;2022-12-18T08:40:43;29.70;;;18.60;;
16673;SDS011;8450;52.654;10.326;2022-12-18T08:43:10;30.40;;;18.73;;
16673;SDS011;8450;52.654;10.326;2022-12-18T08:48:45;33.77;;;20.23;;
16673;SDS011;8450;52.654;10.326;2022-12-18T08:51:12;26.50;;;17.57;;
16673;SDS011;8450;52.654;10.326;2022-12-18T08:53:37;33.87;;;20.27;;
16673;SDS011;8450;52.654;10.326;2022-12-18T09:01:26;31.27;;;18.20;;
16673;SDS011;8450;52.654;10.326;2022-12-18T09:03:53;28.93;;;18.63;;
16673;SDS011;8450;52.654;10.326;2022-12-18T09:11:43;35.13;;;20.60;;
16673;SDS011;8450;52.654;10.326;2022-12-18T09:14:09;33.50;;;21.30;;
16673;SDS011;8450;52.654;10.326;2022-12-18T09:19:05;32.80;;;22.37;;
16673;SDS011;8450;52.654;10.326;2022-12-18T09:21:32;34.40;;;21.53;;
16673;SDS011;8450;52.654;10.326;2022-12-18T09:24:02;32.13;;;19.93;;
16673;SDS011;8450;52.654;10.326;2022-12-18T09:31:52;33.47;;;21.00;;
16673;SDS011;8450;52.654;10.326;2022-12-18T09:34:17;35.33;;;21.97;;
16673;SDS011;8450;52.654;10.326;2022-12-18T09:39:25;31.83;;;20.30;;
16673;SDS011;8450;52.654;10.326;2022-12-18T09:41:54;27.50;;;18.77;;
16673;SDS011;8450;52.654;10.326;2022-12-18T09:44:23;35.37;;;19.87;;
16673;SDS011;8450;52.654;10.326;2022-12-18T09:49:45;27.87;;;17.63;;
16673;SDS011;8450;52.654;10.326;2022-12-18T09:52:16;33.07;;;20.60;;
16673;SDS011;8450;52.654;10.326;2022-12-18T09:54:50;28.50;;;18.30;;
16673;SDS011;8450;52.654;10.326;2022-12-18T10:02:39;27.73;;;17.97;;
16673;SDS011;8450;52.654;10.326;2022-12-18T10:05:06;30.43;;;18.43;;
16673;SDS011;8450;52.654;10.326;2022-12-18T10:22:10;27.37;;;16.83;;
16673;SDS011;8450;52.654;10.326;2022-12-18T10:24:43;25.63;;;16.37;;
16673;SDS011;8450;52.654;10.326;2022-12-18T10:27:18;25.97;;;16.53;;
16673;SDS011;8450;52.654;10.326;2022-12-18T10:29:46;27.57;;;17.03;;
16673;SDS011;8450;52.654;10.326;2022-12-18T10:32:14;30.40;;;18.07;;
16673;SDS011;8450;52.654;10.326;2022-12-18T10:34:44;23.77;;;16.13;;
16673;SDS011;8450;52.654;10.326;2022-12-18T10:37:15;24.63;;;16.27;;
16673;SDS011;8450;52.654;10.326;2022-12-18T10:39:46;25.63;;;16.13;;
16673;SDS011;8450;52.654;10.326;2022-12-18T10:42:40;24.73;;;17.03;;
16673;SDS011;8450;52.654;10.326;2022-12-18T10:45:15;30.47;;;17.60;;
16673;SDS011;8450;52.654;10.326;2022-12-18T10:47:45;24.03;;;16.43;;
16673;SDS011;8450;52.654;10.326;2022-12-18T10:50:30;26.03;;;16.43;;
16673;SDS011;8450;52.654;10.326;2022-12-18T10:53:02;26.57;;;16.17;;
16673;SDS011;8450;52.654;10.326;2022-12-18T10:55:33;28.70;;;17.67;;
16673;SDS011;8450;52.654;10.326;2022-12-18T10:58:13;24.67;;;15.13;;
16673;SDS011;8450;52.654;10.326;2022-12-18T11:01:02;28.90;;;17.10;;
16673;SDS011;8450;52.654;10.326;2022-12-18T11:06:20;24.13;;;16.10;;
16673;SDS011;8450;52.654;10.326;2022-12-18T11:09:00;22.27;;;14.77;;
16673;SDS011;8450;52.654;10.326;2022-12-18T11:11:27;23.13;;;14.80;;
16673;SDS011;8450;52.654;10.326;2022-12-18T11:14:04;25.43;;;15.40;;
16673;SDS011;8450;52.654;10.326;2022-12-18T11:16:36;25.60;;;15.37;;
16673;SDS011;8450;52.654;10.326;2022-12-18T11:19:13;23.83;;;15.63;;
16673;SDS011;8450;52.654;10.326;2022-12-18T11:21:51;25.47;;;15.80;;
16673;SDS011;8450;52.654;10.326;2022-12-18T11:24:38;24.50;;;15.67;;
16673;SDS011;8450;52.654;10.326;2022-12-18T11:27:03;24.43;;;16.00;;
16673;SDS011;8450;52.654;10.326;2022-12-18T11:29:37;26.03;;;16.53;;
16673;SDS011;8450;52.654;10.326;2022-12-18T11:35:03;25.73;;;16.03;;
16673;SDS011;8450;52.654;10.326;2022-12-18T11:37:32;27.80;;;16.97;;
16673;SDS011;8450;52.654;10.326;2022-12-18T11:40:00;26.27;;;16.07;;
16673;SDS011;8450;52.654;10.326;2022-12-18T11:42:40;25.67;;;16.43;;
16673;SDS011;8450;52.654;10.326;2022-12-18T11:45:16;25.80;;;16.03;;
16673;SDS011;8450;52.654;10.326;2022-12-18T11:47:56;24.50;;;15.90;;
16673;SDS011;8450;52.654;10.326;2022-12-18T11:50:45;25.10;;;15.83;;
16673;SDS011;8450;52.654;10.326;2022-12-18T11:53:16;25.37;;;16.20;;
16673;SDS011;8450;52.654;10.326;2022-12-18T12:04:05;26.03;;;15.67;;
16673;SDS011;8450;52.654;10.326;2022-12-18T12:09:33;24.57;;;17.13;;
16673;SDS011;8450;52.654;10.326;2022-12-18T12:12:11;26.57;;;15.67;;
16673;SDS011;8450;52.654;10.326;2022-12-18T12:14:51;21.30;;;14.63;;
16673;SDS011;8450;52.654;10.326;2022-12-18T12:17:54;23.27;;;15.70;;
16673;SDS011;8450;52.654;10.326;2022-12-18T12:23:06;29.40;;;17.67;;
16673;SDS011;8450;52.654;10.326;2022-12-18T12:31:37;23.87;;;16.73;;
16673;SDS011;8450;52.654;10.326;2022-12-18T12:34:19;26.07;;;16.77;;
16673;SDS011;8450;52.654;10.326;2022-12-18T12:37:03;26.63;;;17.33;;
16673;SDS011;8450;52.654;10.326;2022-12-18T12:39:52;19.50;;;13.13;;
16673;SDS011;8450;52.654;10.326;2022-12-18T12:45:36;23.97;;;15.80;;
16673;SDS011;8450;52.654;10.326;2022-12-18T12:48:09;24.70;;;15.53;;
16673;SDS011;8450;52.654;10.326;2022-12-18T12:50:41;23.43;;;14.63;;
16673;SDS011;8450;52.654;10.326;2022-12-18T12:53:07;20.23;;;14.90;;
16673;SDS011;8450;52.654;10.326;2022-12-18T12:55:39;22.77;;;14.70;;
16673;SDS011;8450;52.654;10.326;2022-12-18T12:58:26;20.60;;;14.77;;
16673;SDS011;8450;52.654;10.326;2022-12-18T13:01:04;20.37;;;14.23;;
16673;SDS011;8450;52.654;10.326;2022-12-18T13:09:29;28.10;;;18.40;;
16673;SDS011;8450;52.654;10.326;2022-12-18T13:12:17;22.60;;;15.70;;
16673;SDS011;8450;52.654;10.326;2022-12-18T13:15:11;18.00;;;12.83;;
16673;SDS011;8450;52.654;10.326;2022-12-18T13:17:44;26.00;;;15.83;;
16673;SDS011;8450;52.654;10.326;2022-12-18T13:20:11;23.03;;;15.33;;
16673;SDS011;8450;52.654;10.326;2022-12-18T13:22:43;21.80;;;15.80;;
16673;SDS011;8450;52.654;10.326;2022-12-18T13:28:06;25.83;;;16.27;;
16673;SDS011;8450;52.654;10.326;2022-12-18T13:40:57;24.13;;;17.23;;
16673;SDS011;8450;52.654;10.326;2022-12-18T13:43:23;22.43;;;15.30;;
16673;SDS011;8450;52.654;10.326;2022-12-18T13:48:29;24.10;;;16.30;;
16673;SDS011;8450;52.654;10.326;2022-12-18T13:51:08;23.03;;;16.10;;
16673;SDS011;8450;52.654;10.326;2022-12-18T13:53:37;24.93;;;17.93;;
16673;SDS011;8450;52.654;10.326;2022-12-18T13:56:08;26.03;;;17.13;;
16673;SDS011;8450;52.654;10.326;2022-12-18T13:58:34;24.47;;;17.17;;
16673;SDS011;8450;52.654;10.326;2022-12-18T14:01:00;26.47;;;17.30;;
16673;SDS011;8450;52.654;10.326;2022-12-18T14:03:28;26.03;;;17.43;;
16673;SDS011;8450;52.654;10.326;2022-12-18T14:06:02;26.23;;;16.97;;
16673;SDS011;8450;52.654;10.326;2022-12-18T14:08:38;24.17;;;16.97;;
16673;SDS011;8450;52.654;10.326;2022-12-18T14:11:05;28.77;;;17.30;;
16673;SDS011;8450;52.654;10.326;2022-12-18T14:13:42;25.20;;;16.83;;
16673;SDS011;8450;52.654;10.326;2022-12-18T14:16:11;24.93;;;17.70;;
16673;SDS011;8450;52.654;10.326;2022-12-18T14:18:51;29.17;;;18.57;;
16673;SDS011;8450;52.654;10.326;2022-12-18T14:21:24;27.50;;;18.07;;
